Granada — WDD5300 — position and weather

sailwx.info

Track history (hours):
 
Tides and Currents Weather Stations Pressure Air Temp Water Temp Dewpoint Dewpoint Depression Visibility Wind Speed Wind Dir Waves Ship Positions

Granada

Owner: Jordan, David P, Garibaldi, OR. More information available from US FCC via Universal Licensing System and Coast Guard Vessel Documentation Center.

Last reported at 2018-Feb-22 04:30 UTC. Time now 2018-Feb-22 04:55 UTC.
Position N 45°60' W 124°06'.

Length 22 m.

MMSI: 337796212.

Date/timePositionNaut miles runAvg speedWind from/ knotsBaromVisibWave heightAir tempDewpointWater temp
2018-Feb-22 04:30N 45°60' W 124°06'4 7.9
2018-Feb-22 04:01N 45°57' W 124°03'4 8.3
2018-Feb-22 03:31N 45°53' W 124°02'3 6.6
2018-Feb-22 03:01N 45°50' W 124°01'2 3.2
2018-Feb-22 02:31N 45°48' W 124°01'1 1.6
2018-Feb-22 02:00N 45°49' W 124°02'1 2.2
2018-Feb-22 01:31N 45°48' W 124°02'3 5.9
2018-Feb-22 01:00N 45°45' W 124°04'4 7.4
2018-Feb-22 00:31N 45°42' W 124°06'3 6.3
2018-Feb-22 00:01N 45°39' W 124°06'3 6.9
2018-Feb-21 23:31N 45°40' W 124°01'1 2.6
2018-Feb-21 23:00N 45°38' W 124°00'1 1.5
2018-Feb-21 22:31N 45°39' W 123°60'1 2.9
2018-Feb-21 22:00N 45°38' W 124°00'1 1.3
2018-Feb-21 21:31N 45°37' W 124°01'0 0.2
2018-Feb-21 21:00N 45°37' W 124°01'1 1.2
2018-Feb-21 20:30N 45°38' W 124°01'1 1.8
2018-Feb-21 20:00N 45°39' W 124°00'1 1.7
2018-Feb-21 19:30N 45°38' W 123°59'1 1.6
2018-Feb-21 19:00N 45°37' W 123°59'4 7.4
2018-Feb-21 18:26N 45°41' W 123°60'5 8.4
2018-Feb-21 17:51N 45°46' W 124°01'1 3.5
2018-Feb-21 17:29N 45°47' W 124°03'4 8.4
2018-Feb-21 17:00N 45°48' W 124°08'2 3.4
2018-Feb-21 16:31N 45°48' W 124°11'1 2.9
2018-Feb-21 16:00N 45°50' W 124°11'2 4.1
2018-Feb-21 15:30N 45°47' W 124°11'2 3.1
2018-Feb-21 15:01N 45°49' W 124°10'0 0.7
2018-Feb-21 14:30N 45°49' W 124°10'0 0.8
2018-Feb-21 14:01N 45°49' W 124°09'0 0.9
2018-Feb-21 13:31N 45°49' W 124°09'0 0.8
2018-Feb-21 13:01N 45°49' W 124°08'0 0.7
2018-Feb-21 12:31N 45°50' W 124°08'0 0.8
2018-Feb-21 12:01N 45°50' W 124°07'0 0.8
2018-Feb-21 11:30N 45°50' W 124°07'0 0.8
2018-Feb-21 11:00N 45°50' W 124°06'0 0.9
2018-Feb-21 10:30N 45°50' W 124°05'1 1.2
2018-Feb-21 10:00N 45°50' W 124°05'2 3.0
2018-Feb-21 09:31N 45°48' W 124°05'2 3.1
2018-Feb-21 09:00N 45°47' W 124°05'2 3.1
2018-Feb-21 08:15N 45°44' W 124°04'1 3.2
2018-Feb-21 08:00N 45°44' W 124°05'3 5.8
2018-Feb-21 07:28N 45°47' W 124°03'1 1.0
2018-Feb-21 06:32N 45°47' W 124°02'0 3.5
2018-Feb-21 06:30N 45°46' W 124°02'2 3.2
2018-Feb-21 06:00N 45°45' W 124°02'1 2.9
2018-Feb-21 05:31N 45°43' W 124°02'1 2.2
2018-Feb-21 05:00N 45°42' W 124°02'1 2.7
2018-Feb-21 04:31N 45°43' W 124°00'2 3.7
2018-Feb-21 04:00N 45°43' W 124°03'2 3.2
2018-Feb-21 03:30N 45°41' W 124°03'3 5.2
2018-Feb-21 03:01N 45°44' W 124°03'4 8.9
2018-Feb-21 02:31N 45°48' W 124°03'4 8.4
2018-Feb-21 02:00N 45°52' W 124°03'1 2.9
2018-Feb-21 01:31N 45°54' W 124°04'2 3.0
2018-Feb-21 01:01N 45°52' W 124°04'0 0.3
2018-Feb-21 00:30N 45°52' W 124°03'3 5.8
2018-Feb-21 00:00N 45°55' W 124°04'1 2.2
2018-Feb-20 23:30N 45°56' W 124°05'2 3.8
2018-Feb-20 23:01N 45°58' W 124°03'2 2.8
2018-Feb-20 22:23N 45°59' W 124°04'1 2.3
2018-Feb-20 22:00N 46°00' W 124°04'1 2.6
2018-Feb-20 21:31N 46°01' W 124°04'1 2.6
2018-Feb-20 21:00N 46°03' W 124°05'3 5.4
2018-Feb-20 20:31N 46°05' W 124°05'4 7.1
2018-Feb-20 20:00N 46°09' W 124°06'3 6.8
2018-Feb-20 19:30N 46°12' W 124°06'3 6.8
2018-Feb-20 19:01N 46°15' W 124°04'5 9.3
2018-Feb-20 18:30N 46°14' W 123°58'4 8.1
2018-Feb-20 18:00N 46°10' W 123°55'0 0.5
2018-Feb-20 17:30N 46°10' W 123°55'0 0.0
2018-Feb-20 17:00N 46°10' W 123°55'0 0.0
2018-Feb-20 16:31N 46°10' W 123°55'0 0.0
2018-Feb-20 16:01N 46°10' W 123°55'0 0.0
2018-Feb-20 15:26N 46°10' W 123°55'0 0.0
2018-Feb-20 15:01N 46°10' W 123°55'0 0.0
2018-Feb-20 14:31N 46°10' W 123°55'0 0.0
2018-Feb-20 14:01N 46°10' W 123°55'0 0.0
2018-Feb-20 13:30N 46°10' W 123°55'0 0.0
2018-Feb-20 13:00N 46°10' W 123°55'0 0.0
2018-Feb-20 12:31N 46°10' W 123°55'0 0.0
2018-Feb-20 12:01N 46°10' W 123°55'0 0.0
2018-Feb-20 11:30N 46°10' W 123°55'0 0.0
2018-Feb-20 11:00N 46°10' W 123°55'0 0.0
2018-Feb-20 10:30N 46°10' W 123°55'0 0.0
2018-Feb-20 10:01N 46°10' W 123°55'0 0.0
2018-Feb-20 09:30N 46°10' W 123°55'0 0.0
2018-Feb-20 09:01N 46°10' W 123°55'0 0.0
2018-Feb-20 08:31N 46°10' W 123°55'0 0.0
2018-Feb-20 08:01N 46°10' W 123°55'0 0.0
2018-Feb-20 07:30N 46°10' W 123°55'0 0.0
2018-Feb-20 07:01N 46°10' W 123°55'0 0.0
2018-Feb-20 06:31N 46°10' W 123°55'0 0.0
2018-Feb-20 06:01N 46°10' W 123°55'0 0.0
2018-Feb-20 05:30N 46°10' W 123°55'0 0.0
2018-Feb-20 05:01N 46°10' W 123°55'0 0.4
2018-Feb-20 04:31N 46°10' W 123°55'0 0.0
2018-Feb-20 04:01N 46°10' W 123°55'0 0.0
2018-Feb-20 03:31N 46°10' W 123°55'0 0.0
2018-Feb-20 03:01N 46°10' W 123°55'0 0.4
2018-Feb-20 02:31N 46°10' W 123°55'0 0.0
2018-Feb-20 02:01N 46°10' W 123°55'0 0.0
2018-Feb-20 01:31N 46°10' W 123°55'0 0.0
2018-Feb-20 01:00N 46°10' W 123°55'0 0.0
2018-Feb-20 00:31N 46°10' W 123°55'0 0.0
2018-Feb-20 00:01N 46°10' W 123°55'0 0.0
2018-Feb-19 23:31N 46°10' W 123°55'0 0.0
2018-Feb-19 23:00N 46°10' W 123°55'0 0.0
2018-Feb-19 22:30N 46°10' W 123°55'0 0.0
2018-Feb-19 22:01N 46°10' W 123°55'0 0.0
2018-Feb-19 21:31N 46°10' W 123°55'0 0.0
2018-Feb-19 21:01N 46°10' W 123°55'0 0.0
2018-Feb-19 20:30N 46°10' W 123°55'0 0.0
2018-Feb-19 20:01N 46°10' W 123°55'0 0.0
2018-Feb-19 18:58N 46°10' W 123°55'0 0.0
2018-Feb-19 18:10N 46°10' W 123°55'0 0.0
2018-Feb-19 18:00N 46°10' W 123°55'0 0.0
2018-Feb-19 17:30N 46°10' W 123°55'0 0.0
2018-Feb-19 17:00N 46°10' W 123°55'0 0.0
2018-Feb-19 16:30N 46°10' W 123°55'0 0.0
2018-Feb-19 16:00N 46°10' W 123°55'0 0.0
2018-Feb-19 15:28N 46°10' W 123°55'0 0.0
2018-Feb-19 15:01N 46°10' W 123°55'0 0.0
2018-Feb-19 14:30N 46°10' W 123°55'0 0.0
2018-Feb-19 14:01N 46°10' W 123°55'0 0.0
2018-Feb-19 13:31N 46°10' W 123°55'0 0.0
2018-Feb-19 13:01N 46°10' W 123°55'0 0.0
2018-Feb-19 12:31N 46°10' W 123°55'0 0.0
2018-Feb-19 12:00N 46°10' W 123°55'0 0.0
2018-Feb-19 10:49N 46°10' W 123°55'0 0.0
2018-Feb-19 10:31N 46°10' W 123°55'0 0.0
2018-Feb-19 10:01N 46°10' W 123°55'0 0.0
2018-Feb-19 09:19N 46°10' W 123°55'0 0.0
2018-Feb-19 09:01N 46°10' W 123°55'0 0.0
2018-Feb-19 08:31N 46°10' W 123°55'0 0.0
2018-Feb-19 08:01N 46°10' W 123°55'0 0.0
2018-Feb-19 07:30N 46°10' W 123°55'0 0.0
2018-Feb-19 06:57N 46°10' W 123°55'0 0.0
2018-Feb-19 06:31N 46°10' W 123°55'0 0.0
2018-Feb-19 06:01N 46°10' W 123°55'0 0.0
2018-Feb-19 05:19N 46°10' W 123°55'0 0.0
2018-Feb-19 05:00N 46°10' W 123°55'0 0.0
2018-Feb-19 04:29N 46°10' W 123°55'0 0.0
2018-Feb-19 04:00N 46°10' W 123°55'0 0.0
2018-Feb-19 03:31N 46°10' W 123°55'0 0.0
2018-Feb-19 03:01N 46°10' W 123°55'0 0.0
2018-Feb-19 02:30N 46°10' W 123°55'0 0.0
2018-Feb-19 02:01N 46°10' W 123°55'0 0.0
2018-Feb-19 01:30N 46°10' W 123°55'0 0.0
2018-Feb-19 01:00N 46°10' W 123°55'0 0.0
2018-Feb-19 00:31N 46°10' W 123°55'0 0.0
2018-Feb-19 00:01N 46°10' W 123°55'0 0.0
2018-Feb-18 23:31N 46°10' W 123°55'0 0.0
2018-Feb-18 23:01N 46°10' W 123°55'0 0.0
2018-Feb-18 22:31N 46°10' W 123°55'0 0.0
2018-Feb-18 22:00N 46°10' W 123°55'0 0.0
2018-Feb-18 21:31N 46°10' W 123°55'0 0.0
2018-Feb-18 21:01N 46°10' W 123°55'0 0.0
2018-Feb-18 20:31N 46°10' W 123°55'0 0.0
2018-Feb-18 20:00N 46°10' W 123°55'0 0.0
2018-Feb-18 19:31N 46°10' W 123°55'0 0.0
2018-Feb-18 19:00N 46°10' W 123°55'0 0.0
2018-Feb-18 18:30N 46°10' W 123°55'0 0.0
2018-Feb-18 18:01N 46°10' W 123°55'0 0.0
2018-Feb-18 17:31N 46°10' W 123°55'0 0.0
2018-Feb-18 17:00N 46°10' W 123°55'0 0.0
2018-Feb-18 16:31N 46°10' W 123°55'0 0.0
2018-Feb-18 16:01N 46°10' W 123°55'0 0.0
2018-Feb-18 15:31N 46°10' W 123°55'0 0.0
2018-Feb-18 15:00N 46°10' W 123°55'0 0.0
2018-Feb-18 14:31N 46°10' W 123°55'0 0.0
2018-Feb-18 14:01N 46°10' W 123°55'0 0.0
2018-Feb-18 13:31N 46°10' W 123°55'0 0.0
2018-Feb-18 13:00N 46°10' W 123°55'0 0.0
2018-Feb-18 12:31N 46°10' W 123°55'0 0.0
2018-Feb-18 12:00N 46°10' W 123°55'0 0.0
2018-Feb-18 11:31N 46°10' W 123°55'0 0.0
2018-Feb-18 11:01N 46°10' W 123°55'0 0.0
2018-Feb-18 10:30N 46°10' W 123°55'0 0.0
2018-Feb-18 09:49N 46°10' W 123°55'0 0.0
2018-Feb-18 09:31N 46°10' W 123°55'0 0.0
2018-Feb-18 09:01N 46°10' W 123°55'0 0.0
2018-Feb-18 08:31N 46°10' W 123°55'0 0.0
2018-Feb-18 08:00N 46°10' W 123°55'0 0.0
2018-Feb-18 07:31N 46°10' W 123°55'0 0.0
2018-Feb-18 07:01N 46°10' W 123°55'0 0.0
2018-Feb-18 06:30N 46°10' W 123°55'0 0.0
2018-Feb-18 06:00N 46°10' W 123°55'0 0.0
2018-Feb-18 05:30N 46°10' W 123°55'0 0.0
2018-Feb-18 05:01N 46°10' W 123°55'0 0.0
2018-Feb-18 04:31N 46°10' W 123°55'0 0.0
2018-Feb-18 04:01N 46°10' W 123°55'0 0.0
2018-Feb-18 03:31N 46°10' W 123°55'0 0.0
2018-Feb-18 03:01N 46°10' W 123°55'0 0.0
2018-Feb-18 02:31N 46°10' W 123°55'0 0.0
2018-Feb-18 02:00N 46°10' W 123°55'0 0.0
2018-Feb-18 01:30N 46°10' W 123°55'0 0.0
2018-Feb-18 01:00N 46°10' W 123°55'0 0.0
2018-Feb-18 00:11N 46°10' W 123°55'0 0.0
2018-Feb-17 23:48N 46°10' W 123°55'0 0.0
2018-Feb-17 23:30N 46°10' W 123°55'0 0.0
2018-Feb-17 23:01N 46°10' W 123°55'0 0.0
2018-Feb-17 22:31N 46°10' W 123°55'0 0.0
2018-Feb-17 22:00N 46°10' W 123°55'0 0.0
2018-Feb-17 21:31N 46°10' W 123°55'0 0.0
2018-Feb-17 21:00N 46°10' W 123°55'0 0.0
2018-Feb-17 20:30N 46°10' W 123°55'0 0.0
2018-Feb-17 20:00N 46°10' W 123°55'0 0.0
2018-Feb-17 19:30N 46°10' W 123°55'0 0.0
2018-Feb-17 18:58N 46°10' W 123°55'0 0.0
2018-Feb-17 18:30N 46°10' W 123°55'0 0.0
2018-Feb-17 18:01N 46°10' W 123°55'0 0.0
2018-Feb-17 17:31N 46°10' W 123°55'0 0.0
2018-Feb-17 17:01N 46°10' W 123°55'0 0.0
2018-Feb-17 16:31N 46°10' W 123°55'0 0.0
2018-Feb-17 16:01N 46°10' W 123°55'0 0.0
2018-Feb-17 15:31N 46°10' W 123°55'0 0.0
2018-Feb-17 15:01N 46°10' W 123°55'0 0.0
2018-Feb-17 14:31N 46°10' W 123°55'0 0.0
2018-Feb-17 14:00N 46°10' W 123°55'0 0.0
2018-Feb-17 13:30N 46°10' W 123°55'0 0.0
2018-Feb-17 12:50N 46°10' W 123°55'0 0.0
2018-Feb-17 12:05N 46°10' W 123°55'0 0.0
2018-Feb-17 11:56N 46°10' W 123°55'0 0.0
2018-Feb-17 11:20N 46°10' W 123°55'0 0.0
2018-Feb-17 10:53N 46°10' W 123°55'0 0.0
2018-Feb-17 10:24N 46°10' W 123°55'0 0.0
2018-Feb-17 10:01N 46°10' W 123°55'0 0.0
2018-Feb-17 09:31N 46°10' W 123°55'0 0.0
2018-Feb-17 09:00N 46°10' W 123°55'0 0.0
2018-Feb-17 08:31N 46°10' W 123°55'0 0.4
2018-Feb-17 08:00N 46°10' W 123°55'0 0.0
2018-Feb-17 07:30N 46°10' W 123°55'0 0.0
2018-Feb-17 07:01N 46°10' W 123°55'0 0.0
2018-Feb-17 06:31N 46°10' W 123°55'2 4.3
2018-Feb-17 06:01N 46°12' W 123°56'4 8.4
2018-Feb-17 05:31N 46°15' W 124°01'3 6.7
2018-Feb-17 05:00N 46°15' W 124°06'3 6.1
2018-Feb-17 04:30N 46°12' W 124°06'8 8.3
2018-Feb-17 03:36N 46°04' W 124°05'2 7.3
2018-Feb-17 03:16N 46°02' W 124°05'2 6.9
2018-Feb-17 03:00N 46°00' W 124°05'4 7.3
2018-Feb-17 02:30N 45°57' W 124°03'4 7.2
2018-Feb-17 02:01N 45°53' W 124°03'4 7.0
2018-Feb-17 01:30N 45°50' W 124°05'2 3.2
2018-Feb-17 01:01N 45°48' W 124°05'2 3.6
2018-Feb-17 00:30N 45°46' W 124°05'2 3.2
2018-Feb-17 00:00N 45°45' W 124°04'1 2.5
2018-Feb-16 23:29N 45°44' W 124°04'2 3.7
2018-Feb-16 23:00N 45°42' W 124°03'1 1.7
2018-Feb-16 22:30N 45°41' W 124°02'3 5.3
2018-Feb-16 22:00N 45°44' W 124°01'2 3.7
2018-Feb-16 21:31N 45°42' W 124°00'4 4.7
2018-Feb-16 20:44N 45°38' W 123°59'1 3.0
2018-Feb-16 20:26N 45°37' W 123°59'1 2.9
2018-Feb-16 20:01N 45°39' W 123°59'1 0.9
2018-Feb-16 19:24N 45°39' W 123°60'1 2.8
2018-Feb-16 19:00N 45°38' W 124°00'1 1.6
2018-Feb-16 18:30N 45°37' W 124°00'2 4.1
2018-Feb-16 17:59N 45°39' W 124°00'1 2.6
2018-Feb-16 17:31N 45°38' W 124°01'1 2.6
2018-Feb-16 17:00N 45°37' W 124°01'6 7.3
2018-Feb-16 16:11N 45°42' W 124°03'3 9.5
2018-Feb-16 15:53N 45°45' W 124°04'4 9.3
2018-Feb-16 15:30N 45°49' W 124°05'3 5.1
2018-Feb-16 15:00N 45°46' W 124°05'2 3.2
2018-Feb-16 14:30N 45°44' W 124°05'1 1.4
2018-Feb-16 14:00N 45°45' W 124°06'1 1.2
2018-Feb-16 13:30N 45°45' W 124°07'1 1.1
2018-Feb-16 13:01N 45°46' W 124°07'1 1.0
2018-Feb-16 12:30N 45°46' W 124°08'1 1.0
2018-Feb-16 11:47N 45°47' W 124°08'0 0.9
2018-Feb-16 11:31N 45°47' W 124°09'0 0.7
2018-Feb-16 11:01N 45°47' W 124°09'0 0.7
2018-Feb-16 10:31N 45°47' W 124°09'2 3.6
2018-Feb-16 10:00N 45°49' W 124°10'1 1.5
2018-Feb-16 09:03N 45°48' W 124°11'0 3.1
2018-Feb-16 09:00N 45°48' W 124°11'3 5.6
2018-Feb-16 08:30N 45°50' W 124°10'4 8.6
2018-Feb-16 08:01N 45°54' W 124°08'4 8.5
2018-Feb-16 07:31N 45°59' W 124°07'4 8.1
2018-Feb-16 07:00N 46°02' W 124°05'1 1.9
2018-Feb-16 06:31N 46°02' W 124°04'1 2.6
2018-Feb-16 06:00N 46°00' W 124°04'1 1.2
2018-Feb-16 05:30N 45°60' W 124°03'1 2.0
2018-Feb-16 05:01N 45°59' W 124°04'1 2.8
2018-Feb-16 04:30N 45°58' W 124°03'2 3.4
2018-Feb-16 04:01N 45°56' W 124°04'2 3.3
2018-Feb-16 03:31N 45°55' W 124°04'2 3.3
2018-Feb-16 03:01N 45°53' W 124°04'2 3.4
2018-Feb-16 02:29N 45°51' W 124°04'2 5.1
2018-Feb-16 02:01N 45°50' W 124°01'2 3.4
2018-Feb-16 01:31N 45°48' W 124°01'1 1.7
2018-Feb-16 01:01N 45°49' W 124°02'2 2.9
2018-Feb-16 00:25N 45°47' W 124°02'1 2.6
2018-Feb-16 00:00N 45°46' W 124°02'0 0.2
2018-Feb-15 23:31N 45°46' W 124°02'1 1.0
2018-Feb-15 23:00N 45°46' W 124°02'1 2.8
2018-Feb-15 22:31N 45°44' W 124°02'2 3.0
2018-Feb-15 22:01N 45°43' W 124°02'1 1.6
2018-Feb-15 21:30N 45°43' W 124°03'2 3.0
2018-Feb-15 21:01N 45°41' W 124°03'3 5.4
2018-Feb-15 20:30N 45°44' W 124°01'1 1.6
2018-Feb-15 20:00N 45°43' W 124°00'2 4.7
2018-Feb-15 19:30N 45°41' W 124°00'2 4.6
2018-Feb-15 19:00N 45°38' W 123°59'1 1.5
2018-Feb-15 18:20N 45°37' W 123°59'2 7.4
2018-Feb-15 18:00N 45°40' W 123°60'1 2.9
2018-Feb-15 17:31N 45°38' W 124°00'1 2.9
2018-Feb-15 17:00N 45°37' W 124°00'3 5.3
2018-Feb-15 16:31N 45°40' W 124°00'1 1.8
2018-Feb-15 16:01N 45°39' W 124°01'2 3.0
2018-Feb-15 15:30N 45°37' W 124°01'1 1.6
2018-Feb-15 15:00N 45°36' W 124°01'4 8.1
2018-Feb-15 14:31N 45°38' W 124°07'3 5.0
2018-Feb-15 14:00N 45°39' W 124°09'0 0.8
2018-Feb-15 13:31N 45°40' W 124°09'0 0.9
2018-Feb-15 13:00N 45°40' W 124°09'1 1.1
2018-Feb-15 12:30N 45°41' W 124°09'1 1.1
2018-Feb-15 12:00N 45°41' W 124°09'1 1.2
2018-Feb-15 11:13N 45°42' W 124°09'0 1.1
2018-Feb-15 10:54N 45°43' W 124°09'0 1.2
2018-Feb-15 10:31N 45°43' W 124°09'1 1.3
2018-Feb-15 10:00N 45°44' W 124°09'1 1.2
2018-Feb-15 09:30N 45°44' W 124°09'2 3.9
2018-Feb-15 09:00N 45°46' W 124°10'3 6.6
2018-Feb-15 08:30N 45°49' W 124°11'3 5.2
2018-Feb-15 08:00N 45°50' W 124°07'2 3.5
2018-Feb-15 07:30N 45°49' W 124°05'2 3.2
2018-Feb-15 07:00N 45°48' W 124°05'1 1.7
2018-Feb-15 06:31N 45°47' W 124°05'1 2.2
2018-Feb-15 06:01N 45°46' W 124°05'1 2.8
2018-Feb-15 05:30N 45°44' W 124°05'1 1.2
2018-Feb-15 05:00N 45°44' W 124°05'4 8.6
2018-Feb-15 04:30N 45°48' W 124°03'4 8.5
2018-Feb-15 04:00N 45°52' W 124°03'4 8.4
2018-Feb-15 03:31N 45°56' W 124°04'3 6.6
2018-Feb-15 03:01N 45°59' W 124°04'1 2.6
2018-Feb-15 02:30N 45°58' W 124°03'1 2.3
2018-Feb-15 02:00N 45°57' W 124°03'1 2.3
2018-Feb-15 01:31N 45°56' W 124°02'1 1.9
2018-Feb-15 01:00N 45°55' W 124°02'1 2.3
2018-Feb-15 00:30N 45°54' W 124°01'3 6.3
2018-Feb-15 00:01N 45°51' W 124°01'2 3.8
2018-Feb-14 23:31N 45°49' W 124°01'1 1.3
2018-Feb-14 23:00N 45°48' W 124°01'1 1.1
2018-Feb-14 22:31N 45°48' W 124°02'1 2.3
2018-Feb-14 22:00N 45°47' W 124°02'1 2.7
2018-Feb-14 21:30N 45°46' W 124°02'1 2.3
2018-Feb-14 21:01N 45°44' W 124°02'1 2.8
2018-Feb-14 20:31N 45°43' W 124°02'0 0.5
2018-Feb-14 20:00N 45°43' W 124°02'1 1.7
2018-Feb-14 19:31N 45°43' W 124°00'2 3.2
2018-Feb-14 18:54N 45°42' W 124°03'1 3.2
2018-Feb-14 18:30N 45°41' W 124°03'2 4.0
2018-Feb-14 18:00N 45°43' W 124°04'5 9.9
2018-Feb-14 17:31N 45°48' W 124°04'5 9.7
2018-Feb-14 17:01N 45°53' W 124°03'3 6.7
2018-Feb-14 16:31N 45°56' W 124°05'2 2.8
2018-Feb-14 15:48N 45°54' W 124°04'1 2.0
2018-Feb-14 15:30N 45°53' W 124°04'1 2.7
2018-Feb-14 15:01N 45°52' W 124°04'1 1.2
2018-Feb-14 14:31N 45°53' W 124°03'3 5.8
2018-Feb-14 14:01N 45°55' W 124°02'1 2.0
2018-Feb-14 13:31N 45°56' W 124°03'1 1.8
2018-Feb-14 13:01N 45°57' W 124°04'1 1.8
2018-Feb-14 12:31N 45°57' W 124°06'1 1.5
2018-Feb-14 12:01N 45°57' W 124°07'1 1.4
2018-Feb-14 11:28N 45°56' W 124°08'1 1.1
2018-Feb-14 11:00N 45°56' W 124°08'1 1.2
2018-Feb-14 10:30N 45°56' W 124°09'1 1.1
2018-Feb-14 10:00N 45°56' W 124°10'1 1.2
2018-Feb-14 09:30N 45°56' W 124°11'0 0.9
2018-Feb-14 09:01N 45°55' W 124°11'1 2.6
2018-Feb-14 08:31N 45°56' W 124°10'4 7.6
2018-Feb-14 08:00N 45°57' W 124°04'3 6.9
2018-Feb-14 07:30N 46°00' W 124°04'1 1.7
2018-Feb-14 07:01N 46°01' W 124°04'1 2.9
2018-Feb-14 06:30N 46°02' W 124°05'3 5.3
2018-Feb-14 06:01N 46°05' W 124°05'4 8.0
2018-Feb-14 05:31N 46°09' W 124°05'4 8.1
2018-Feb-14 05:00N 46°13' W 124°06'3 6.9
2018-Feb-14 04:30N 46°15' W 124°03'4 7.6
2018-Feb-14 04:00N 46°14' W 123°58'4 7.8
2018-Feb-14 03:31N 46°11' W 123°55'1 1.0
2018-Feb-14 03:01N 46°10' W 123°55'0 0.4
2018-Feb-14 02:30N 46°10' W 123°55'0 0.0
2018-Feb-14 02:00N 46°10' W 123°55'0 0.0
2018-Feb-14 01:30N 46°10' W 123°55'0 0.0
2018-Feb-14 01:01N 46°10' W 123°55'0 0.0
2018-Feb-14 00:30N 46°10' W 123°55'0 0.0
2018-Feb-14 00:01N 46°10' W 123°55'0 0.0
2018-Feb-13 23:30N 46°10' W 123°55'0 0.0
2018-Feb-13 23:01N 46°10' W 123°55'0 0.0
2018-Feb-13 22:30N 46°10' W 123°55'0 0.0
2018-Feb-13 21:54N 46°10' W 123°55'0 0.0
2018-Feb-13 21:19N 46°10' W 123°55'0 0.0
2018-Feb-13 20:36N 46°10' W 123°55'0 0.0
2018-Feb-13 20:30N 46°10' W 123°55'0 0.0
2018-Feb-13 20:01N 46°10' W 123°55'0 0.0
2018-Feb-13 19:31N 46°10' W 123°55'0 0.0
2018-Feb-13 19:01N 46°10' W 123°55'0 0.0
2018-Feb-13 18:19N 46°10' W 123°55'0 0.0
2018-Feb-13 17:45N 46°10' W 123°55'0 0.0
2018-Feb-13 17:24N 46°10' W 123°55'0 0.0
2018-Feb-13 17:00N 46°10' W 123°55'0 0.0
2018-Feb-13 16:31N 46°10' W 123°55'0 0.0
2018-Feb-13 15:40N 46°10' W 123°55'0 0.0
2018-Feb-13 15:21N 46°10' W 123°55'0 0.0
2018-Feb-13 15:00N 46°10' W 123°55'0 0.0
2018-Feb-13 14:31N 46°10' W 123°55'0 0.0
2018-Feb-13 14:01N 46°10' W 123°55'0 0.0
2018-Feb-13 13:31N 46°10' W 123°55'0 0.0
2018-Feb-13 12:45N 46°10' W 123°55'0 0.0
2018-Feb-13 12:30N 46°10' W 123°55'0 0.0
2018-Feb-13 12:00N 46°10' W 123°55'0 0.0
2018-Feb-13 11:31N 46°10' W 123°55'0 0.0
2018-Feb-13 11:01N 46°10' W 123°55'0 0.0
2018-Feb-13 10:31N 46°10' W 123°55'0 0.0
2018-Feb-13 10:01N 46°10' W 123°55'0 0.0
2018-Feb-13 09:31N 46°10' W 123°55'0 0.0
2018-Feb-13 09:01N 46°10' W 123°55'0 0.0
2018-Feb-13 08:30N 46°10' W 123°55'0 0.0
2018-Feb-13 08:01N 46°10' W 123°55'0 0.0
2018-Feb-13 07:30N 46°10' W 123°55'0 0.0
2018-Feb-13 07:01N 46°10' W 123°55'0 0.0
2018-Feb-13 06:30N 46°10' W 123°55'0 0.0
2018-Feb-13 05:49N 46°10' W 123°55'0 0.0
2018-Feb-13 05:24N 46°10' W 123°55'0 0.0
2018-Feb-13 05:01N 46°10' W 123°55'0 0.0
2018-Feb-13 04:31N 46°10' W 123°55'0 0.0
2018-Feb-13 04:00N 46°10' W 123°55'0 0.0
2018-Feb-13 03:30N 46°10' W 123°55'0 0.0
2018-Feb-13 03:00N 46°10' W 123°55'0 0.0
2018-Feb-13 02:30N 46°10' W 123°55'0 0.0
2018-Feb-13 02:00N 46°10' W 123°55'0 0.0
2018-Feb-13 01:31N 46°10' W 123°55'0 0.0
2018-Feb-13 01:00N 46°10' W 123°55'0 0.0
2018-Feb-13 00:13N 46°10' W 123°55'0 0.0
2018-Feb-13 00:01N 46°10' W 123°55'0 0.0
2018-Feb-12 23:30N 46°10' W 123°55'0 0.0
2018-Feb-12 23:00N 46°10' W 123°55'0 0.0
2018-Feb-12 22:31N 46°10' W 123°55'0 0.0
2018-Feb-12 22:01N 46°10' W 123°55'0 0.0
2018-Feb-12 21:30N 46°10' W 123°55'0 0.0
2018-Feb-12 21:00N 46°10' W 123°55'0 0.0
2018-Feb-12 20:19N 46°10' W 123°55'0 0.0
2018-Feb-12 20:00N 46°10' W 123°55'0 0.0
2018-Feb-12 19:30N 46°10' W 123°55'0 0.0
2018-Feb-12 19:00N 46°10' W 123°55'0 0.0
2018-Feb-12 18:31N 46°10' W 123°55'0 0.0
2018-Feb-12 18:00N 46°10' W 123°55'0 0.0
2018-Feb-12 17:31N 46°10' W 123°55'0 0.0
2018-Feb-12 17:01N 46°10' W 123°55'0 0.0
2018-Feb-12 16:22N 46°10' W 123°55'0 0.3
2018-Feb-12 16:00N 46°10' W 123°55'0 0.2
2018-Feb-12 15:31N 46°10' W 123°55'0 0.0
2018-Feb-12 15:00N 46°10' W 123°55'0 0.0
2018-Feb-12 14:31N 46°10' W 123°55'0 0.0
2018-Feb-12 14:01N 46°10' W 123°55'0 0.0
2018-Feb-12 13:31N 46°10' W 123°55'0 0.0
2018-Feb-12 12:56N 46°10' W 123°55'0 0.0
2018-Feb-12 12:31N 46°10' W 123°55'0 0.0
2018-Feb-12 12:01N 46°10' W 123°55'0 0.0
2018-Feb-12 11:31N 46°10' W 123°55'0 0.0
2018-Feb-12 11:01N 46°10' W 123°55'0 0.0
2018-Feb-12 10:31N 46°10' W 123°55'0 0.0
2018-Feb-12 10:00N 46°10' W 123°55'0 0.0
2018-Feb-12 09:30N 46°10' W 123°55'0 0.0
2018-Feb-12 09:01N 46°10' W 123°55'0 0.8
2018-Feb-12 08:30N 46°11' W 123°55'3 6.6
2018-Feb-12 08:01N 46°13' W 123°58'4 7.5
2018-Feb-12 07:31N 46°15' W 124°02'3 6.7
2018-Feb-12 07:01N 46°14' W 124°06'3 6.1
2018-Feb-12 06:31N 46°12' W 124°09'  
Track history (hours):
 
Tides and Currents Weather Stations Pressure Air Temp Water Temp Dewpoint Dewpoint Depression Visibility Wind Speed Wind Dir Waves Ship Positions

Granada

Owner: Jordan, David P, Garibaldi, OR. More information available from US FCC via Universal Licensing System and Coast Guard Vessel Documentation Center.

Last reported at 2018-Feb-22 04:30 UTC. Time now 2018-Feb-22 04:55 UTC.
Position N 45°60' W 124°06'.

Length 22 m.

MMSI: 337796212.

Date/timePositionNaut miles runAvg speedWind from/ knotsBaromVisibWave heightAir tempDewpointWater temp
2018-Feb-22 04:30N 45°60' W 124°06'4 7.9
2018-Feb-22 04:01N 45°57' W 124°03'4 8.3
2018-Feb-22 03:31N 45°53' W 124°02'3 6.6
2018-Feb-22 03:01N 45°50' W 124°01'2 3.2
2018-Feb-22 02:31N 45°48' W 124°01'1 1.6
2018-Feb-22 02:00N 45°49' W 124°02'1 2.2
2018-Feb-22 01:31N 45°48' W 124°02'3 5.9
2018-Feb-22 01:00N 45°45' W 124°04'4 7.4
2018-Feb-22 00:31N 45°42' W 124°06'3 6.3
2018-Feb-22 00:01N 45°39' W 124°06'3 6.9
2018-Feb-21 23:31N 45°40' W 124°01'1 2.6
2018-Feb-21 23:00N 45°38' W 124°00'1 1.5
2018-Feb-21 22:31N 45°39' W 123°60'1 2.9
2018-Feb-21 22:00N 45°38' W 124°00'1 1.3
2018-Feb-21 21:31N 45°37' W 124°01'0 0.2
2018-Feb-21 21:00N 45°37' W 124°01'1 1.2
2018-Feb-21 20:30N 45°38' W 124°01'1 1.8
2018-Feb-21 20:00N 45°39' W 124°00'1 1.7
2018-Feb-21 19:30N 45°38' W 123°59'1 1.6
2018-Feb-21 19:00N 45°37' W 123°59'4 7.4
2018-Feb-21 18:26N 45°41' W 123°60'5 8.4
2018-Feb-21 17:51N 45°46' W 124°01'1 3.5
2018-Feb-21 17:29N 45°47' W 124°03'4 8.4
2018-Feb-21 17:00N 45°48' W 124°08'2 3.4
2018-Feb-21 16:31N 45°48' W 124°11'1 2.9
2018-Feb-21 16:00N 45°50' W 124°11'2 4.1
2018-Feb-21 15:30N 45°47' W 124°11'2 3.1
2018-Feb-21 15:01N 45°49' W 124°10'0 0.7
2018-Feb-21 14:30N 45°49' W 124°10'0 0.8
2018-Feb-21 14:01N 45°49' W 124°09'0 0.9
2018-Feb-21 13:31N 45°49' W 124°09'0 0.8
2018-Feb-21 13:01N 45°49' W 124°08'0 0.7
2018-Feb-21 12:31N 45°50' W 124°08'0 0.8
2018-Feb-21 12:01N 45°50' W 124°07'0 0.8
2018-Feb-21 11:30N 45°50' W 124°07'0 0.8
2018-Feb-21 11:00N 45°50' W 124°06'0 0.9
2018-Feb-21 10:30N 45°50' W 124°05'1 1.2
2018-Feb-21 10:00N 45°50' W 124°05'2 3.0
2018-Feb-21 09:31N 45°48' W 124°05'2 3.1
2018-Feb-21 09:00N 45°47' W 124°05'2 3.1
2018-Feb-21 08:15N 45°44' W 124°04'1 3.2
2018-Feb-21 08:00N 45°44' W 124°05'3 5.8
2018-Feb-21 07:28N 45°47' W 124°03'1 1.0
2018-Feb-21 06:32N 45°47' W 124°02'0 3.5
2018-Feb-21 06:30N 45°46' W 124°02'2 3.2
2018-Feb-21 06:00N 45°45' W 124°02'1 2.9
2018-Feb-21 05:31N 45°43' W 124°02'1 2.2
2018-Feb-21 05:00N 45°42' W 124°02'1 2.7
2018-Feb-21 04:31N 45°43' W 124°00'2 3.7
2018-Feb-21 04:00N 45°43' W 124°03'2 3.2
2018-Feb-21 03:30N 45°41' W 124°03'3 5.2
2018-Feb-21 03:01N 45°44' W 124°03'4 8.9
2018-Feb-21 02:31N 45°48' W 124°03'4 8.4
2018-Feb-21 02:00N 45°52' W 124°03'1 2.9
2018-Feb-21 01:31N 45°54' W 124°04'2 3.0
2018-Feb-21 01:01N 45°52' W 124°04'0 0.3
2018-Feb-21 00:30N 45°52' W 124°03'3 5.8
2018-Feb-21 00:00N 45°55' W 124°04'1 2.2
2018-Feb-20 23:30N 45°56' W 124°05'2 3.8
2018-Feb-20 23:01N 45°58' W 124°03'2 2.8
2018-Feb-20 22:23N 45°59' W 124°04'1 2.3
2018-Feb-20 22:00N 46°00' W 124°04'1 2.6
2018-Feb-20 21:31N 46°01' W 124°04'1 2.6
2018-Feb-20 21:00N 46°03' W 124°05'3 5.4
2018-Feb-20 20:31N 46°05' W 124°05'4 7.1
2018-Feb-20 20:00N 46°09' W 124°06'3 6.8
2018-Feb-20 19:30N 46°12' W 124°06'3 6.8
2018-Feb-20 19:01N 46°15' W 124°04'5 9.3
2018-Feb-20 18:30N 46°14' W 123°58'4 8.1
2018-Feb-20 18:00N 46°10' W 123°55'0 0.5
2018-Feb-20 17:30N 46°10' W 123°55'0 0.0
2018-Feb-20 17:00N 46°10' W 123°55'0 0.0
2018-Feb-20 16:31N 46°10' W 123°55'0 0.0
2018-Feb-20 16:01N 46°10' W 123°55'0 0.0
2018-Feb-20 15:26N 46°10' W 123°55'0 0.0
2018-Feb-20 15:01N 46°10' W 123°55'0 0.0
2018-Feb-20 14:31N 46°10' W 123°55'0 0.0
2018-Feb-20 14:01N 46°10' W 123°55'0 0.0
2018-Feb-20 13:30N 46°10' W 123°55'0 0.0
2018-Feb-20 13:00N 46°10' W 123°55'0 0.0
2018-Feb-20 12:31N 46°10' W 123°55'0 0.0
2018-Feb-20 12:01N 46°10' W 123°55'0 0.0
2018-Feb-20 11:30N 46°10' W 123°55'0 0.0
2018-Feb-20 11:00N 46°10' W 123°55'0 0.0
2018-Feb-20 10:30N 46°10' W 123°55'0 0.0
2018-Feb-20 10:01N 46°10' W 123°55'0 0.0
2018-Feb-20 09:30N 46°10' W 123°55'0 0.0
2018-Feb-20 09:01N 46°10' W 123°55'0 0.0
2018-Feb-20 08:31N 46°10' W 123°55'0 0.0
2018-Feb-20 08:01N 46°10' W 123°55'0 0.0
2018-Feb-20 07:30N 46°10' W 123°55'0 0.0
2018-Feb-20 07:01N 46°10' W 123°55'0 0.0
2018-Feb-20 06:31N 46°10' W 123°55'0 0.0
2018-Feb-20 06:01N 46°10' W 123°55'0 0.0
2018-Feb-20 05:30N 46°10' W 123°55'0 0.0
2018-Feb-20 05:01N 46°10' W 123°55'0 0.4
2018-Feb-20 04:31N 46°10' W 123°55'0 0.0
2018-Feb-20 04:01N 46°10' W 123°55'0 0.0
2018-Feb-20 03:31N 46°10' W 123°55'0 0.0
2018-Feb-20 03:01N 46°10' W 123°55'0 0.4
2018-Feb-20 02:31N 46°10' W 123°55'0 0.0
2018-Feb-20 02:01N 46°10' W 123°55'0 0.0
2018-Feb-20 01:31N 46°10' W 123°55'0 0.0
2018-Feb-20 01:00N 46°10' W 123°55'0 0.0
2018-Feb-20 00:31N 46°10' W 123°55'0 0.0
2018-Feb-20 00:01N 46°10' W 123°55'0 0.0
2018-Feb-19 23:31N 46°10' W 123°55'0 0.0
2018-Feb-19 23:00N 46°10' W 123°55'0 0.0
2018-Feb-19 22:30N 46°10' W 123°55'0 0.0
2018-Feb-19 22:01N 46°10' W 123°55'0 0.0
2018-Feb-19 21:31N 46°10' W 123°55'0 0.0
2018-Feb-19 21:01N 46°10' W 123°55'0 0.0
2018-Feb-19 20:30N 46°10' W 123°55'0 0.0
2018-Feb-19 20:01N 46°10' W 123°55'0 0.0
2018-Feb-19 18:58N 46°10' W 123°55'0 0.0
2018-Feb-19 18:10N 46°10' W 123°55'0 0.0
2018-Feb-19 18:00N 46°10' W 123°55'0 0.0
2018-Feb-19 17:30N 46°10' W 123°55'0 0.0
2018-Feb-19 17:00N 46°10' W 123°55'0 0.0
2018-Feb-19 16:30N 46°10' W 123°55'0 0.0
2018-Feb-19 16:00N 46°10' W 123°55'0 0.0
2018-Feb-19 15:28N 46°10' W 123°55'0 0.0
2018-Feb-19 15:01N 46°10' W 123°55'0 0.0
2018-Feb-19 14:30N 46°10' W 123°55'0 0.0
2018-Feb-19 14:01N 46°10' W 123°55'0 0.0
2018-Feb-19 13:31N 46°10' W 123°55'0 0.0
2018-Feb-19 13:01N 46°10' W 123°55'0 0.0
2018-Feb-19 12:31N 46°10' W 123°55'0 0.0
2018-Feb-19 12:00N 46°10' W 123°55'0 0.0
2018-Feb-19 10:49N 46°10' W 123°55'0 0.0
2018-Feb-19 10:31N 46°10' W 123°55'0 0.0
2018-Feb-19 10:01N 46°10' W 123°55'0 0.0
2018-Feb-19 09:19N 46°10' W 123°55'0 0.0
2018-Feb-19 09:01N 46°10' W 123°55'0 0.0
2018-Feb-19 08:31N 46°10' W 123°55'0 0.0
2018-Feb-19 08:01N 46°10' W 123°55'0 0.0
2018-Feb-19 07:30N 46°10' W 123°55'0 0.0
2018-Feb-19 06:57N 46°10' W 123°55'0 0.0
2018-Feb-19 06:31N 46°10' W 123°55'0 0.0
2018-Feb-19 06:01N 46°10' W 123°55'0 0.0
2018-Feb-19 05:19N 46°10' W 123°55'0 0.0
2018-Feb-19 05:00N 46°10' W 123°55'0 0.0
2018-Feb-19 04:29N 46°10' W 123°55'0 0.0
2018-Feb-19 04:00N 46°10' W 123°55'0 0.0
2018-Feb-19 03:31N 46°10' W 123°55'0 0.0
2018-Feb-19 03:01N 46°10' W 123°55'0 0.0
2018-Feb-19 02:30N 46°10' W 123°55'0 0.0
2018-Feb-19 02:01N 46°10' W 123°55'0 0.0
2018-Feb-19 01:30N 46°10' W 123°55'0 0.0
2018-Feb-19 01:00N 46°10' W 123°55'0 0.0
2018-Feb-19 00:31N 46°10' W 123°55'0 0.0
2018-Feb-19 00:01N 46°10' W 123°55'0 0.0
2018-Feb-18 23:31N 46°10' W 123°55'0 0.0
2018-Feb-18 23:01N 46°10' W 123°55'0 0.0
2018-Feb-18 22:31N 46°10' W 123°55'0 0.0
2018-Feb-18 22:00N 46°10' W 123°55'0 0.0
2018-Feb-18 21:31N 46°10' W 123°55'0 0.0
2018-Feb-18 21:01N 46°10' W 123°55'0 0.0
2018-Feb-18 20:31N 46°10' W 123°55'0 0.0
2018-Feb-18 20:00N 46°10' W 123°55'0 0.0
2018-Feb-18 19:31N 46°10' W 123°55'0 0.0
2018-Feb-18 19:00N 46°10' W 123°55'0 0.0
2018-Feb-18 18:30N 46°10' W 123°55'0 0.0
2018-Feb-18 18:01N 46°10' W 123°55'0 0.0
2018-Feb-18 17:31N 46°10' W 123°55'0 0.0
2018-Feb-18 17:00N 46°10' W 123°55'0 0.0
2018-Feb-18 16:31N 46°10' W 123°55'0 0.0
2018-Feb-18 16:01N 46°10' W 123°55'0 0.0
2018-Feb-18 15:31N 46°10' W 123°55'0 0.0
2018-Feb-18 15:00N 46°10' W 123°55'0 0.0
2018-Feb-18 14:31N 46°10' W 123°55'0 0.0
2018-Feb-18 14:01N 46°10' W 123°55'0 0.0
2018-Feb-18 13:31N 46°10' W 123°55'0 0.0
2018-Feb-18 13:00N 46°10' W 123°55'0 0.0
2018-Feb-18 12:31N 46°10' W 123°55'0 0.0
2018-Feb-18 12:00N 46°10' W 123°55'0 0.0
2018-Feb-18 11:31N 46°10' W 123°55'0 0.0
2018-Feb-18 11:01N 46°10' W 123°55'0 0.0
2018-Feb-18 10:30N 46°10' W 123°55'0 0.0
2018-Feb-18 09:49N 46°10' W 123°55'0 0.0
2018-Feb-18 09:31N 46°10' W 123°55'0 0.0
2018-Feb-18 09:01N 46°10' W 123°55'0 0.0
2018-Feb-18 08:31N 46°10' W 123°55'0 0.0
2018-Feb-18 08:00N 46°10' W 123°55'0 0.0
2018-Feb-18 07:31N 46°10' W 123°55'0 0.0
2018-Feb-18 07:01N 46°10' W 123°55'0 0.0
2018-Feb-18 06:30N 46°10' W 123°55'0 0.0
2018-Feb-18 06:00N 46°10' W 123°55'0 0.0
2018-Feb-18 05:30N 46°10' W 123°55'0 0.0
2018-Feb-18 05:01N 46°10' W 123°55'0 0.0
2018-Feb-18 04:31N 46°10' W 123°55'0 0.0
2018-Feb-18 04:01N 46°10' W 123°55'0 0.0
2018-Feb-18 03:31N 46°10' W 123°55'0 0.0
2018-Feb-18 03:01N 46°10' W 123°55'0 0.0
2018-Feb-18 02:31N 46°10' W 123°55'0 0.0
2018-Feb-18 02:00N 46°10' W 123°55'0 0.0
2018-Feb-18 01:30N 46°10' W 123°55'0 0.0
2018-Feb-18 01:00N 46°10' W 123°55'0 0.0
2018-Feb-18 00:11N 46°10' W 123°55'0 0.0
2018-Feb-17 23:48N 46°10' W 123°55'0 0.0
2018-Feb-17 23:30N 46°10' W 123°55'0 0.0
2018-Feb-17 23:01N 46°10' W 123°55'0 0.0
2018-Feb-17 22:31N 46°10' W 123°55'0 0.0
2018-Feb-17 22:00N 46°10' W 123°55'0 0.0
2018-Feb-17 21:31N 46°10' W 123°55'0 0.0
2018-Feb-17 21:00N 46°10' W 123°55'0 0.0
2018-Feb-17 20:30N 46°10' W 123°55'0 0.0
2018-Feb-17 20:00N 46°10' W 123°55'0 0.0
2018-Feb-17 19:30N 46°10' W 123°55'0 0.0
2018-Feb-17 18:58N 46°10' W 123°55'0 0.0
2018-Feb-17 18:30N 46°10' W 123°55'0 0.0
2018-Feb-17 18:01N 46°10' W 123°55'0 0.0
2018-Feb-17 17:31N 46°10' W 123°55'0 0.0
2018-Feb-17 17:01N 46°10' W 123°55'0 0.0
2018-Feb-17 16:31N 46°10' W 123°55'0 0.0
2018-Feb-17 16:01N 46°10' W 123°55'0 0.0
2018-Feb-17 15:31N 46°10' W 123°55'0 0.0
2018-Feb-17 15:01N 46°10' W 123°55'0 0.0
2018-Feb-17 14:31N 46°10' W 123°55'0 0.0
2018-Feb-17 14:00N 46°10' W 123°55'0 0.0
2018-Feb-17 13:30N 46°10' W 123°55'0 0.0
2018-Feb-17 12:50N 46°10' W 123°55'0 0.0
2018-Feb-17 12:05N 46°10' W 123°55'0 0.0
2018-Feb-17 11:56N 46°10' W 123°55'0 0.0
2018-Feb-17 11:20N 46°10' W 123°55'0 0.0
2018-Feb-17 10:53N 46°10' W 123°55'0 0.0
2018-Feb-17 10:24N 46°10' W 123°55'0 0.0
2018-Feb-17 10:01N 46°10' W 123°55'0 0.0
2018-Feb-17 09:31N 46°10' W 123°55'0 0.0
2018-Feb-17 09:00N 46°10' W 123°55'0 0.0
2018-Feb-17 08:31N 46°10' W 123°55'0 0.4
2018-Feb-17 08:00N 46°10' W 123°55'0 0.0
2018-Feb-17 07:30N 46°10' W 123°55'0 0.0
2018-Feb-17 07:01N 46°10' W 123°55'0 0.0
2018-Feb-17 06:31N 46°10' W 123°55'2 4.3
2018-Feb-17 06:01N 46°12' W 123°56'4 8.4
2018-Feb-17 05:31N 46°15' W 124°01'3 6.7
2018-Feb-17 05:00N 46°15' W 124°06'3 6.1
2018-Feb-17 04:30N 46°12' W 124°06'8 8.3
2018-Feb-17 03:36N 46°04' W 124°05'2 7.3
2018-Feb-17 03:16N 46°02' W 124°05'2 6.9
2018-Feb-17 03:00N 46°00' W 124°05'4 7.3
2018-Feb-17 02:30N 45°57' W 124°03'4 7.2
2018-Feb-17 02:01N 45°53' W 124°03'4 7.0
2018-Feb-17 01:30N 45°50' W 124°05'2 3.2
2018-Feb-17 01:01N 45°48' W 124°05'2 3.6
2018-Feb-17 00:30N 45°46' W 124°05'2 3.2
2018-Feb-17 00:00N 45°45' W 124°04'1 2.5
2018-Feb-16 23:29N 45°44' W 124°04'2 3.7
2018-Feb-16 23:00N 45°42' W 124°03'1 1.7
2018-Feb-16 22:30N 45°41' W 124°02'3 5.3
2018-Feb-16 22:00N 45°44' W 124°01'2 3.7
2018-Feb-16 21:31N 45°42' W 124°00'4 4.7
2018-Feb-16 20:44N 45°38' W 123°59'1 3.0
2018-Feb-16 20:26N 45°37' W 123°59'1 2.9
2018-Feb-16 20:01N 45°39' W 123°59'1 0.9
2018-Feb-16 19:24N 45°39' W 123°60'1 2.8
2018-Feb-16 19:00N 45°38' W 124°00'1 1.6
2018-Feb-16 18:30N 45°37' W 124°00'2 4.1
2018-Feb-16 17:59N 45°39' W 124°00'1 2.6
2018-Feb-16 17:31N 45°38' W 124°01'1 2.6
2018-Feb-16 17:00N 45°37' W 124°01'6 7.3
2018-Feb-16 16:11N 45°42' W 124°03'3 9.5
2018-Feb-16 15:53N 45°45' W 124°04'4 9.3
2018-Feb-16 15:30N 45°49' W 124°05'3 5.1
2018-Feb-16 15:00N 45°46' W 124°05'2 3.2
2018-Feb-16 14:30N 45°44' W 124°05'1 1.4
2018-Feb-16 14:00N 45°45' W 124°06'1 1.2
2018-Feb-16 13:30N 45°45' W 124°07'1 1.1
2018-Feb-16 13:01N 45°46' W 124°07'1 1.0
2018-Feb-16 12:30N 45°46' W 124°08'1 1.0
2018-Feb-16 11:47N 45°47' W 124°08'0 0.9
2018-Feb-16 11:31N 45°47' W 124°09'0 0.7
2018-Feb-16 11:01N 45°47' W 124°09'0 0.7
2018-Feb-16 10:31N 45°47' W 124°09'2 3.6
2018-Feb-16 10:00N 45°49' W 124°10'1 1.5
2018-Feb-16 09:03N 45°48' W 124°11'0 3.1
2018-Feb-16 09:00N 45°48' W 124°11'3 5.6
2018-Feb-16 08:30N 45°50' W 124°10'4 8.6
2018-Feb-16 08:01N 45°54' W 124°08'4 8.5
2018-Feb-16 07:31N 45°59' W 124°07'4 8.1
2018-Feb-16 07:00N 46°02' W 124°05'1 1.9
2018-Feb-16 06:31N 46°02' W 124°04'1 2.6
2018-Feb-16 06:00N 46°00' W 124°04'1 1.2
2018-Feb-16 05:30N 45°60' W 124°03'1 2.0
2018-Feb-16 05:01N 45°59' W 124°04'1 2.8
2018-Feb-16 04:30N 45°58' W 124°03'2 3.4
2018-Feb-16 04:01N 45°56' W 124°04'2 3.3
2018-Feb-16 03:31N 45°55' W 124°04'2 3.3
2018-Feb-16 03:01N 45°53' W 124°04'2 3.4
2018-Feb-16 02:29N 45°51' W 124°04'2 5.1
2018-Feb-16 02:01N 45°50' W 124°01'2 3.4
2018-Feb-16 01:31N 45°48' W 124°01'1 1.7
2018-Feb-16 01:01N 45°49' W 124°02'2 2.9
2018-Feb-16 00:25N 45°47' W 124°02'1 2.6
2018-Feb-16 00:00N 45°46' W 124°02'0 0.2
2018-Feb-15 23:31N 45°46' W 124°02'1 1.0
2018-Feb-15 23:00N 45°46' W 124°02'1 2.8
2018-Feb-15 22:31N 45°44' W 124°02'2 3.0
2018-Feb-15 22:01N 45°43' W 124°02'1 1.6
2018-Feb-15 21:30N 45°43' W 124°03'2 3.0
2018-Feb-15 21:01N 45°41' W 124°03'3 5.4
2018-Feb-15 20:30N 45°44' W 124°01'1 1.6
2018-Feb-15 20:00N 45°43' W 124°00'2 4.7
2018-Feb-15 19:30N 45°41' W 124°00'2 4.6
2018-Feb-15 19:00N 45°38' W 123°59'1 1.5
2018-Feb-15 18:20N 45°37' W 123°59'2 7.4
2018-Feb-15 18:00N 45°40' W 123°60'1 2.9
2018-Feb-15 17:31N 45°38' W 124°00'1 2.9
2018-Feb-15 17:00N 45°37' W 124°00'3 5.3
2018-Feb-15 16:31N 45°40' W 124°00'1 1.8
2018-Feb-15 16:01N 45°39' W 124°01'2 3.0
2018-Feb-15 15:30N 45°37' W 124°01'1 1.6
2018-Feb-15 15:00N 45°36' W 124°01'4 8.1
2018-Feb-15 14:31N 45°38' W 124°07'3 5.0
2018-Feb-15 14:00N 45°39' W 124°09'0 0.8
2018-Feb-15 13:31N 45°40' W 124°09'0 0.9
2018-Feb-15 13:00N 45°40' W 124°09'1 1.1
2018-Feb-15 12:30N 45°41' W 124°09'1 1.1
2018-Feb-15 12:00N 45°41' W 124°09'1 1.2
2018-Feb-15 11:13N 45°42' W 124°09'0 1.1
2018-Feb-15 10:54N 45°43' W 124°09'0 1.2
2018-Feb-15 10:31N 45°43' W 124°09'1 1.3
2018-Feb-15 10:00N 45°44' W 124°09'1 1.2
2018-Feb-15 09:30N 45°44' W 124°09'2 3.9
2018-Feb-15 09:00N 45°46' W 124°10'3 6.6
2018-Feb-15 08:30N 45°49' W 124°11'3 5.2
2018-Feb-15 08:00N 45°50' W 124°07'2 3.5
2018-Feb-15 07:30N 45°49' W 124°05'2 3.2
2018-Feb-15 07:00N 45°48' W 124°05'1 1.7
2018-Feb-15 06:31N 45°47' W 124°05'1 2.2
2018-Feb-15 06:01N 45°46' W 124°05'1 2.8
2018-Feb-15 05:30N 45°44' W 124°05'1 1.2
2018-Feb-15 05:00N 45°44' W 124°05'4 8.6
2018-Feb-15 04:30N 45°48' W 124°03'4 8.5
2018-Feb-15 04:00N 45°52' W 124°03'4 8.4
2018-Feb-15 03:31N 45°56' W 124°04'3 6.6
2018-Feb-15 03:01N 45°59' W 124°04'1 2.6
2018-Feb-15 02:30N 45°58' W 124°03'1 2.3
2018-Feb-15 02:00N 45°57' W 124°03'1 2.3
2018-Feb-15 01:31N 45°56' W 124°02'1 1.9
2018-Feb-15 01:00N 45°55' W 124°02'1 2.3
2018-Feb-15 00:30N 45°54' W 124°01'3 6.3
2018-Feb-15 00:01N 45°51' W 124°01'2 3.8
2018-Feb-14 23:31N 45°49' W 124°01'1 1.3
2018-Feb-14 23:00N 45°48' W 124°01'1 1.1
2018-Feb-14 22:31N 45°48' W 124°02'1 2.3
2018-Feb-14 22:00N 45°47' W 124°02'1 2.7
2018-Feb-14 21:30N 45°46' W 124°02'1 2.3
2018-Feb-14 21:01N 45°44' W 124°02'1 2.8
2018-Feb-14 20:31N 45°43' W 124°02'0 0.5
2018-Feb-14 20:00N 45°43' W 124°02'1 1.7
2018-Feb-14 19:31N 45°43' W 124°00'2 3.2
2018-Feb-14 18:54N 45°42' W 124°03'1 3.2
2018-Feb-14 18:30N 45°41' W 124°03'2 4.0
2018-Feb-14 18:00N 45°43' W 124°04'5 9.9
2018-Feb-14 17:31N 45°48' W 124°04'5 9.7
2018-Feb-14 17:01N 45°53' W 124°03'3 6.7
2018-Feb-14 16:31N 45°56' W 124°05'2 2.8
2018-Feb-14 15:48N 45°54' W 124°04'1 2.0
2018-Feb-14 15:30N 45°53' W 124°04'1 2.7
2018-Feb-14 15:01N 45°52' W 124°04'1 1.2
2018-Feb-14 14:31N 45°53' W 124°03'3 5.8
2018-Feb-14 14:01N 45°55' W 124°02'1 2.0
2018-Feb-14 13:31N 45°56' W 124°03'1 1.8
2018-Feb-14 13:01N 45°57' W 124°04'1 1.8
2018-Feb-14 12:31N 45°57' W 124°06'1 1.5
2018-Feb-14 12:01N 45°57' W 124°07'1 1.4
2018-Feb-14 11:28N 45°56' W 124°08'1 1.1
2018-Feb-14 11:00N 45°56' W 124°08'1 1.2
2018-Feb-14 10:30N 45°56' W 124°09'1 1.1
2018-Feb-14 10:00N 45°56' W 124°10'1 1.2
2018-Feb-14 09:30N 45°56' W 124°11'0 0.9
2018-Feb-14 09:01N 45°55' W 124°11'1 2.6
2018-Feb-14 08:31N 45°56' W 124°10'4 7.6
2018-Feb-14 08:00N 45°57' W 124°04'3 6.9
2018-Feb-14 07:30N 46°00' W 124°04'1 1.7
2018-Feb-14 07:01N 46°01' W 124°04'1 2.9
2018-Feb-14 06:30N 46°02' W 124°05'3 5.3
2018-Feb-14 06:01N 46°05' W 124°05'4 8.0
2018-Feb-14 05:31N 46°09' W 124°05'4 8.1
2018-Feb-14 05:00N 46°13' W 124°06'3 6.9
2018-Feb-14 04:30N 46°15' W 124°03'4 7.6
2018-Feb-14 04:00N 46°14' W 123°58'4 7.8
2018-Feb-14 03:31N 46°11' W 123°55'1 1.0
2018-Feb-14 03:01N 46°10' W 123°55'0 0.4
2018-Feb-14 02:30N 46°10' W 123°55'0 0.0
2018-Feb-14 02:00N 46°10' W 123°55'0 0.0
2018-Feb-14 01:30N 46°10' W 123°55'0 0.0
2018-Feb-14 01:01N 46°10' W 123°55'0 0.0
2018-Feb-14 00:30N 46°10' W 123°55'0 0.0
2018-Feb-14 00:01N 46°10' W 123°55'0 0.0
2018-Feb-13 23:30N 46°10' W 123°55'0 0.0
2018-Feb-13 23:01N 46°10' W 123°55'0 0.0
2018-Feb-13 22:30N 46°10' W 123°55'0 0.0
2018-Feb-13 21:54N 46°10' W 123°55'0 0.0
2018-Feb-13 21:19N 46°10' W 123°55'0 0.0
2018-Feb-13 20:36N 46°10' W 123°55'0 0.0
2018-Feb-13 20:30N 46°10' W 123°55'0 0.0
2018-Feb-13 20:01N 46°10' W 123°55'0 0.0
2018-Feb-13 19:31N 46°10' W 123°55'0 0.0
2018-Feb-13 19:01N 46°10' W 123°55'0 0.0
2018-Feb-13 18:19N 46°10' W 123°55'0 0.0
2018-Feb-13 17:45N 46°10' W 123°55'0 0.0
2018-Feb-13 17:24N 46°10' W 123°55'0 0.0
2018-Feb-13 17:00N 46°10' W 123°55'0 0.0
2018-Feb-13 16:31N 46°10' W 123°55'0 0.0
2018-Feb-13 15:40N 46°10' W 123°55'0 0.0
2018-Feb-13 15:21N 46°10' W 123°55'0 0.0
2018-Feb-13 15:00N 46°10' W 123°55'0 0.0
2018-Feb-13 14:31N 46°10' W 123°55'0 0.0
2018-Feb-13 14:01N 46°10' W 123°55'0 0.0
2018-Feb-13 13:31N 46°10' W 123°55'0 0.0
2018-Feb-13 12:45N 46°10' W 123°55'0 0.0
2018-Feb-13 12:30N 46°10' W 123°55'0 0.0
2018-Feb-13 12:00N 46°10' W 123°55'0 0.0
2018-Feb-13 11:31N 46°10' W 123°55'0 0.0
2018-Feb-13 11:01N 46°10' W 123°55'0 0.0
2018-Feb-13 10:31N 46°10' W 123°55'0 0.0
2018-Feb-13 10:01N 46°10' W 123°55'0 0.0
2018-Feb-13 09:31N 46°10' W 123°55'0 0.0
2018-Feb-13 09:01N 46°10' W 123°55'0 0.0
2018-Feb-13 08:30N 46°10' W 123°55'0 0.0
2018-Feb-13 08:01N 46°10' W 123°55'0 0.0
2018-Feb-13 07:30N 46°10' W 123°55'0 0.0
2018-Feb-13 07:01N 46°10' W 123°55'0 0.0
2018-Feb-13 06:30N 46°10' W 123°55'0 0.0
2018-Feb-13 05:49N 46°10' W 123°55'0 0.0
2018-Feb-13 05:24N 46°10' W 123°55'0 0.0
2018-Feb-13 05:01N 46°10' W 123°55'0 0.0
2018-Feb-13 04:31N 46°10' W 123°55'0 0.0
2018-Feb-13 04:00N 46°10' W 123°55'0 0.0
2018-Feb-13 03:30N 46°10' W 123°55'0 0.0
2018-Feb-13 03:00N 46°10' W 123°55'0 0.0
2018-Feb-13 02:30N 46°10' W 123°55'0 0.0
2018-Feb-13 02:00N 46°10' W 123°55'0 0.0
2018-Feb-13 01:31N 46°10' W 123°55'0 0.0
2018-Feb-13 01:00N 46°10' W 123°55'0 0.0
2018-Feb-13 00:13N 46°10' W 123°55'0 0.0
2018-Feb-13 00:01N 46°10' W 123°55'0 0.0
2018-Feb-12 23:30N 46°10' W 123°55'0 0.0
2018-Feb-12 23:00N 46°10' W 123°55'0 0.0
2018-Feb-12 22:31N 46°10' W 123°55'0 0.0
2018-Feb-12 22:01N 46°10' W 123°55'0 0.0
2018-Feb-12 21:30N 46°10' W 123°55'0 0.0
2018-Feb-12 21:00N 46°10' W 123°55'0 0.0
2018-Feb-12 20:19N 46°10' W 123°55'0 0.0
2018-Feb-12 20:00N 46°10' W 123°55'0 0.0
2018-Feb-12 19:30N 46°10' W 123°55'0 0.0
2018-Feb-12 19:00N 46°10' W 123°55'0 0.0
2018-Feb-12 18:31N 46°10' W 123°55'0 0.0
2018-Feb-12 18:00N 46°10' W 123°55'0 0.0
2018-Feb-12 17:31N 46°10' W 123°55'0 0.0
2018-Feb-12 17:01N 46°10' W 123°55'0 0.0
2018-Feb-12 16:22N 46°10' W 123°55'0 0.3
2018-Feb-12 16:00N 46°10' W 123°55'0 0.2
2018-Feb-12 15:31N 46°10' W 123°55'0 0.0
2018-Feb-12 15:00N 46°10' W 123°55'0 0.0
2018-Feb-12 14:31N 46°10' W 123°55'0 0.0
2018-Feb-12 14:01N 46°10' W 123°55'0 0.0
2018-Feb-12 13:31N 46°10' W 123°55'0 0.0
2018-Feb-12 12:56N 46°10' W 123°55'0 0.0
2018-Feb-12 12:31N 46°10' W 123°55'0 0.0
2018-Feb-12 12:01N 46°10' W 123°55'0 0.0
2018-Feb-12 11:31N 46°10' W 123°55'0 0.0
2018-Feb-12 11:01N 46°10' W 123°55'0 0.0
2018-Feb-12 10:31N 46°10' W 123°55'0 0.0
2018-Feb-12 10:00N 46°10' W 123°55'0 0.0
2018-Feb-12 09:30N 46°10' W 123°55'0 0.0
2018-Feb-12 09:01N 46°10' W 123°55'0 0.8
2018-Feb-12 08:30N 46°11' W 123°55'3 6.6
2018-Feb-12 08:01N 46°13' W 123°58'4 7.5
2018-Feb-12 07:31N 46°15' W 124°02'3 6.7
2018-Feb-12 07:01N 46°14' W 124°06'3 6.1
2018-Feb-12 06:31N 46°12' W 124°09'  

Dump ship's entire track history